createdAt,value
2019-02-22T00:01:38.578Z,53.77
2019-02-22T00:05:41.874Z,49.73
2019-02-22T00:09:49.392Z,54.37
2019-02-22T00:13:51.194Z,50.33
2019-02-22T00:17:54.664Z,53.23
2019-02-22T00:21:58.008Z,59.17
2019-02-22T00:26:01.349Z,51.17
2019-02-22T00:30:04.861Z,52.40
2019-02-22T00:34:08.281Z,58.33
2019-02-22T00:38:11.734Z,52.27
2019-02-22T00:42:15.214Z,52.23
2019-02-22T00:46:18.566Z,47.30
2019-02-22T00:50:21.924Z,53.10
2019-02-22T00:54:25.302Z,59.90
2019-02-22T00:58:29.491Z,53.90
2019-02-22T01:02:33.377Z,49.67
2019-02-22T01:06:36.751Z,53.97
2019-02-22T01:10:40.077Z,54.27
2019-02-22T01:14:44.290Z,50.57
2019-02-22T01:18:47.731Z,59.23
2019-02-22T01:22:51.043Z,55.13
2019-02-22T01:26:54.386Z,55.87
2019-02-22T01:30:57.724Z,63.20
2019-02-22T01:35:01.083Z,49.57
2019-02-22T01:39:05.741Z,57.27
2019-02-22T01:43:09.112Z,62.30
2019-02-22T01:47:12.455Z,54.17
2019-02-22T01:51:16.319Z,57.80
2019-02-22T01:55:20.137Z,55.57
2019-02-22T01:59:23.894Z,59.30
2019-02-22T02:03:27.262Z,61.10
2019-02-22T02:07:31.091Z,51.40
2019-02-22T02:11:34.564Z,57.57
2019-02-22T02:15:38.435Z,62.87
2019-02-22T02:19:41.786Z,55.67
2019-02-22T02:23:45.251Z,56.23
2019-02-22T02:27:48.621Z,66.00
2019-02-22T02:31:51.987Z,61.13
2019-02-22T02:35:55.895Z,67.80
2019-02-22T02:39:59.702Z,70.63
2019-02-22T02:44:03.344Z,59.70
2019-02-22T02:48:06.796Z,59.50
2019-02-22T02:52:10.976Z,57.67
2019-02-22T02:56:14.356Z,61.13
2019-02-22T03:00:17.759Z,53.87
2019-02-22T03:04:21.126Z,62.03
2019-02-22T03:08:28.189Z,59.83
2019-02-22T03:12:31.624Z,58.17
2019-02-22T03:16:35.577Z,58.93
2019-02-22T03:20:39.402Z,66.60
2019-02-22T03:24:42.727Z,52.23
2019-02-22T03:28:46.540Z,50.67
2019-02-22T03:32:49.910Z,49.07
2019-02-22T03:36:53.216Z,52.30
2019-02-22T03:40:57.048Z,63.20
2019-02-22T03:45:00.834Z,55.97
2019-02-22T03:49:04.737Z,58.20
2019-02-22T03:53:17.406Z,52.13
2019-02-22T03:57:21.273Z,65.07
2019-02-22T04:01:24.720Z,65.37
2019-02-22T04:05:28.080Z,46.40
2019-02-22T04:09:32.101Z,64.30
2019-02-22T04:13:35.559Z,56.20
2019-02-22T04:17:38.890Z,67.90
2019-02-22T04:21:42.302Z,72.83
2019-02-22T04:25:46.068Z,58.33
2019-02-22T04:29:49.781Z,55.87
2019-02-22T04:33:53.190Z,59.27
2019-02-22T04:37:57.003Z,56.70
2019-02-22T04:42:00.723Z,54.33
2019-02-22T04:46:04.238Z,75.93
2019-02-22T04:50:08.504Z,59.67
2019-02-22T04:54:12.343Z,49.20
2019-02-22T04:58:15.749Z,65.13
2019-02-22T05:02:19.108Z,85.77
2019-02-22T05:06:22.916Z,79.57
2019-02-22T05:10:26.243Z,90.80
2019-02-22T05:14:29.589Z,59.20
2019-02-22T05:18:32.952Z,79.87
2019-02-22T05:22:36.302Z,55.03
2019-02-22T05:26:39.690Z,55.67
2019-02-22T05:30:43.135Z,51.83
2019-02-22T05:34:46.480Z,51.83
2019-02-22T05:38:49.837Z,72.30
2019-02-22T05:42:53.219Z,74.77
2019-02-22T05:47:00.341Z,67.03
2019-02-22T05:51:01.769Z,50.40
2019-02-22T05:55:05.257Z,57.93
2019-02-22T05:59:08.721Z,59.17
2019-02-22T06:03:12.512Z,46.73
2019-02-22T06:07:15.914Z,46.07
2019-02-22T06:11:19.398Z,54.57
2019-02-22T06:15:23.081Z,55.27
2019-02-22T06:19:26.388Z,54.90
2019-02-22T06:23:30.399Z,51.60
2019-02-22T06:27:34.000Z,50.90
2019-02-22T06:31:37.570Z,45.67
2019-02-22T06:35:40.875Z,48.23
2019-02-22T06:39:44.170Z,54.80
2019-02-22T06:43:48.049Z,46.87
2019-02-22T06:47:51.442Z,50.30
2019-02-22T06:51:54.730Z,51.47
2019-02-22T06:55:58.038Z,48.50
2019-02-22T07:00:01.339Z,46.80
2019-02-22T07:04:04.701Z,49.80
2019-02-22T07:08:08.011Z,56.10
2019-02-22T07:12:15.587Z,47.37
2019-02-22T07:16:18.882Z,48.17
2019-02-22T07:20:22.170Z,43.70
2019-02-22T07:24:25.458Z,40.87
2019-02-22T07:28:28.754Z,42.03
2019-02-22T07:32:32.496Z,45.07
2019-02-22T07:36:35.790Z,41.57
2019-02-22T07:40:39.582Z,42.77
2019-02-22T07:44:43.302Z,43.03
2019-02-22T07:48:46.634Z,40.90
2019-02-22T07:52:49.941Z,45.80
2019-02-22T07:56:53.229Z,41.90
2019-02-22T08:00:56.535Z,41.37
2019-02-22T08:04:59.826Z,40.70
2019-02-22T08:09:04.899Z,41.47
2019-02-22T08:13:19.247Z,41.40
2019-02-22T08:17:14.675Z,41.40
2019-02-22T08:21:18.267Z,37.80
2019-02-22T08:25:22.034Z,209.77
2019-02-22T08:29:25.318Z,38.17
2019-02-22T08:33:28.623Z,35.10
2019-02-22T08:37:32.617Z,37.43
2019-02-22T08:41:36.378Z,32.03
2019-02-22T08:45:39.923Z,31.63
2019-02-22T08:49:43.242Z,31.20
2019-02-22T08:53:46.714Z,31.27
2019-02-22T08:57:50.374Z,28.40
2019-02-22T09:01:53.811Z,26.97
2019-02-22T09:05:57.807Z,25.40
2019-02-22T09:10:01.888Z,28.30
2019-02-22T09:14:05.175Z,26.80
2019-02-22T09:18:08.527Z,26.87
2019-02-22T09:22:22.234Z,26.30
2019-02-22T09:26:17.550Z,27.67
2019-02-22T09:30:20.822Z,28.63
2019-02-22T09:34:24.123Z,23.00
2019-02-22T09:38:27.410Z,23.90
2019-02-22T09:42:31.495Z,23.00
2019-02-22T09:46:35.219Z,28.83
2019-02-22T09:50:38.602Z,59.73
2019-02-22T09:54:42.251Z,24.93
2019-02-22T09:58:46.286Z,22.07
2019-02-22T10:02:49.578Z,23.87
2019-02-22T10:06:52.886Z,22.23
2019-02-22T10:10:56.617Z,21.10
2019-02-22T10:14:59.947Z,23.07
2019-02-22T10:19:03.240Z,20.43
2019-02-22T10:23:06.553Z,21.67
2019-02-22T10:27:12.036Z,18.50
2019-02-22T10:31:15.639Z,19.23
2019-02-22T10:35:18.926Z,17.80
2019-02-22T10:39:22.230Z,15.20
2019-02-22T10:43:25.959Z,17.03
2019-02-22T10:47:29.267Z,12.63
2019-02-22T10:51:34.216Z,14.93
2019-02-22T10:55:37.654Z,11.33
2019-02-22T10:59:40.954Z,14.17
2019-02-22T11:03:44.478Z,11.13
2019-02-22T11:07:48.494Z,8.93
2019-02-22T11:11:52.108Z,9.20
2019-02-22T11:15:55.723Z,11.70
2019-02-22T11:19:59.027Z,15.13
2019-02-22T11:24:02.598Z,16.10
2019-02-22T11:28:05.892Z,14.50
2019-02-22T11:32:09.196Z,16.40
2019-02-22T11:36:12.486Z,14.70
2019-02-22T11:40:15.823Z,14.43
2019-02-22T11:44:19.095Z,9.83
2019-02-22T11:48:22.397Z,9.87
2019-02-22T11:52:26.218Z,12.17
2019-02-22T11:56:29.774Z,10.80
2019-02-22T12:00:33.970Z,10.90
2019-02-22T12:04:37.695Z,6.73
2019-02-22T12:08:41.686Z,4.13
2019-02-22T12:12:44.974Z,4.60
2019-02-22T12:16:48.253Z,5.80
2019-02-22T12:20:51.546Z,5.40
2019-02-22T12:24:54.830Z,6.63
2019-02-22T12:28:58.138Z,6.23
2019-02-22T12:33:01.439Z,6.90
2019-02-22T12:37:04.890Z,7.50
2019-02-22T12:41:08.698Z,6.57
2019-02-22T12:45:12.054Z,5.10
2019-02-22T12:49:15.791Z,4.67
2019-02-22T12:53:19.542Z,6.00
2019-02-22T12:57:22.838Z,5.80
2019-02-22T13:01:26.558Z,7.30
2019-02-22T13:05:30.810Z,5.97
2019-02-22T13:09:36.962Z,5.67
2019-02-22T13:13:40.011Z,5.53
2019-02-22T13:17:43.318Z,6.63
2019-02-22T13:21:46.622Z,6.30
2019-02-22T13:25:50.338Z,4.40
2019-02-22T13:29:53.659Z,7.13
2019-02-22T13:33:57.382Z,4.73
2019-02-22T13:38:00.952Z,5.33
2019-02-22T13:42:04.309Z,3.67
2019-02-22T13:46:07.598Z,4.53
2019-02-22T13:50:11.646Z,4.63
2019-02-22T13:54:15.026Z,5.70
2019-02-22T13:58:18.333Z,4.90
2019-02-22T14:02:22.115Z,10.10
2019-02-22T14:06:25.554Z,10.50
2019-02-22T14:10:29.290Z,10.63
2019-02-22T14:14:33.015Z,11.80
2019-02-22T14:18:36.311Z,11.40
2019-02-22T14:22:40.042Z,11.70
2019-02-22T14:26:43.786Z,10.17
2019-02-22T14:30:47.086Z,9.20
2019-02-22T14:34:50.366Z,10.50
2019-02-22T14:38:53.778Z,9.90
2019-02-22T14:42:57.110Z,9.70
2019-02-22T14:47:00.423Z,10.20
2019-02-22T14:51:04.234Z,10.23
2019-02-22T14:55:07.779Z,10.17
2019-02-22T14:59:11.511Z,9.73
2019-02-22T15:03:15.666Z,9.10
2019-02-22T15:07:19.430Z,10.30
2019-02-22T15:11:22.766Z,8.87
2019-02-22T15:15:38.094Z,14.00
2019-02-22T15:19:41.366Z,11.47
2019-02-22T15:23:44.667Z,11.40
2019-02-22T15:27:48.402Z,12.00
2019-02-22T15:31:52.409Z,13.83
2019-02-22T15:35:55.702Z,12.60
2019-02-22T15:39:59.452Z,13.63
2019-02-22T15:44:05.694Z,11.57
2019-02-22T15:48:09.020Z,13.53
2019-02-22T15:52:12.359Z,13.27
2019-02-22T15:56:18.330Z,13.77
2019-02-22T16:00:22.774Z,15.43
2019-02-22T16:05:00.374Z,15.20
2019-02-22T16:09:05.600Z,15.70
2019-02-22T16:13:08.903Z,14.20
2019-02-22T16:17:12.185Z,16.10
2019-02-22T16:21:15.481Z,15.70
2019-02-22T16:25:20.310Z,16.47
2019-02-22T16:29:23.698Z,16.00
2019-02-22T16:33:26.986Z,17.40
2019-02-22T16:37:30.282Z,19.03
2019-02-22T16:41:33.595Z,17.70
2019-02-22T16:45:36.886Z,16.30
2019-02-22T16:49:40.198Z,19.57
2019-02-22T16:53:44.251Z,19.40
2019-02-22T16:57:48.350Z,18.57
2019-02-22T17:01:52.087Z,20.40
2019-02-22T17:05:55.390Z,20.10
2019-02-22T17:09:59.130Z,21.03
2019-02-22T17:14:02.426Z,17.67
2019-02-22T17:18:05.850Z,17.33
2019-02-22T17:22:09.774Z,18.87
2019-02-22T17:26:14.598Z,17.00
2019-02-22T17:30:17.906Z,20.33
2019-02-22T17:34:21.632Z,18.27
2019-02-22T17:38:24.934Z,18.03
2019-02-22T17:42:28.666Z,20.03
2019-02-22T17:46:31.956Z,17.97
2019-02-22T17:50:35.255Z,19.50
2019-02-22T17:54:38.991Z,18.70
2019-02-22T17:58:42.303Z,19.27
2019-02-22T18:02:45.602Z,18.13
2019-02-22T18:06:48.911Z,19.80
2019-02-22T18:10:52.186Z,18.93
2019-02-22T18:14:55.519Z,18.87
2019-02-22T18:18:58.835Z,17.13
2019-02-22T18:23:02.114Z,18.87
2019-02-22T18:27:05.718Z,16.30
2019-02-22T18:31:09.039Z,17.83
2019-02-22T18:35:12.830Z,18.27
2019-02-22T18:39:16.139Z,18.43
2019-02-22T18:43:19.518Z,20.80
2019-02-22T18:47:22.805Z,20.50
2019-02-22T18:51:26.116Z,21.97
2019-02-22T18:55:29.470Z,21.10
2019-02-22T18:59:33.486Z,22.97
2019-02-22T19:03:36.950Z,50.83
2019-02-22T19:07:40.335Z,24.30
2019-02-22T19:11:43.807Z,22.47
2019-02-22T19:15:47.411Z,21.70
2019-02-22T19:19:51.390Z,22.23
2019-02-22T19:23:55.130Z,23.00
2019-02-22T19:27:58.446Z,81.37
2019-02-22T19:32:01.746Z,43.50
2019-02-22T19:36:05.034Z,25.77
2019-02-22T19:40:10.144Z,26.90
2019-02-22T19:44:13.883Z,25.90
2019-02-22T19:48:17.706Z,28.20
2019-02-22T19:52:21.014Z,24.53
2019-02-22T19:56:26.058Z,24.70
2019-02-22T20:00:29.665Z,23.40
2019-02-22T20:04:33.012Z,26.60
2019-02-22T20:08:36.298Z,23.60
2019-02-22T20:12:39.614Z,23.80
2019-02-22T20:16:42.915Z,21.33
2019-02-22T20:20:46.212Z,21.20
2019-02-22T20:24:49.507Z,22.43
2019-02-22T20:28:53.124Z,22.57
2019-02-22T20:32:56.492Z,24.47
2019-02-22T20:37:00.249Z,21.60
2019-02-22T20:41:03.629Z,19.63
2019-02-22T20:45:07.206Z,19.87
2019-02-22T20:49:10.931Z,35.20
2019-02-22T20:53:14.241Z,24.63
2019-02-22T20:57:17.553Z,21.77
2019-02-22T21:01:21.024Z,24.47
2019-02-22T21:05:24.326Z,21.87
2019-02-22T21:09:27.886Z,25.23
2019-02-22T21:13:31.491Z,23.63
2019-02-22T21:17:35.039Z,22.70
2019-02-22T21:21:38.610Z,23.17
2019-02-22T21:25:42.630Z,22.67
2019-02-22T21:29:46.372Z,23.17
2019-02-22T21:33:49.674Z,23.27
2019-02-22T21:37:53.399Z,21.73
2019-02-22T21:41:56.955Z,22.73
2019-02-22T21:46:00.534Z,23.90
2019-02-22T21:50:04.170Z,22.97
2019-02-22T21:54:07.719Z,21.10
2019-02-22T21:58:11.455Z,24.17
2019-02-22T22:02:15.962Z,21.20
2019-02-22T22:06:19.251Z,21.00
2019-02-22T22:10:23.159Z,21.70
2019-02-22T22:14:27.211Z,21.30
2019-02-22T22:18:38.446Z,18.83
2019-02-22T22:22:36.282Z,19.90
2019-02-22T22:26:39.586Z,20.00
2019-02-22T22:30:43.149Z,22.48
2019-02-22T22:34:47.290Z,18.23
2019-02-22T22:38:50.579Z,18.97
2019-02-22T22:42:53.898Z,17.70
2019-02-22T22:46:57.638Z,17.83
2019-02-22T22:51:01.034Z,15.30
2019-02-22T22:55:04.879Z,18.20
2019-02-22T22:59:08.646Z,16.10
2019-02-22T23:03:12.074Z,17.17
2019-02-22T23:07:15.374Z,15.77
2019-02-22T23:11:18.667Z,17.00
2019-02-22T23:15:22.032Z,16.73
2019-02-22T23:19:25.322Z,17.00
2019-02-22T23:23:28.662Z,18.30
2019-02-22T23:27:31.945Z,16.87
2019-02-22T23:31:35.927Z,16.17
2019-02-22T23:35:39.651Z,18.50
2019-02-22T23:39:43.286Z,19.80
2019-02-22T23:43:46.654Z,18.20
2019-02-22T23:47:50.278Z,17.67
2019-02-22T23:51:53.586Z,19.60
2019-02-22T23:55:56.877Z,20.13
